createdAt,value
2022-11-24T00:01:20.064Z,10.80
2022-11-24T00:03:55.843Z,10.80
2022-11-24T00:06:24.798Z,10.80
2022-11-24T00:08:53.908Z,10.80
2022-11-24T00:11:24.818Z,10.80
2022-11-24T00:13:53.668Z,10.70
2022-11-24T00:16:23.682Z,10.70
2022-11-24T00:18:55.434Z,10.70
2022-11-24T00:21:24.622Z,10.70
2022-11-24T00:23:53.442Z,10.70
2022-11-24T00:26:23.903Z,10.70
2022-11-24T00:28:53.894Z,10.70
2022-11-24T00:31:23.822Z,10.70
2022-11-24T00:33:54.984Z,10.70
2022-11-24T00:36:25.486Z,10.80
2022-11-24T00:38:55.553Z,10.80
2022-11-24T00:41:23.891Z,10.80
2022-11-24T00:43:52.132Z,10.80
2022-11-24T00:46:20.960Z,10.80
2022-11-24T00:48:49.496Z,10.80
2022-11-24T00:51:20.564Z,10.80
2022-11-24T00:53:48.841Z,10.80
2022-11-24T00:56:17.268Z,10.80
2022-11-24T00:58:45.563Z,10.80
2022-11-24T01:01:15.677Z,10.80
2022-11-24T01:03:44.597Z,10.80
2022-11-24T01:06:14.805Z,10.80
2022-11-24T01:08:44.916Z,10.70
2022-11-24T01:11:15.189Z,10.70
2022-11-24T01:13:44.902Z,10.70
2022-11-24T01:16:20.987Z,10.70
2022-11-24T01:18:49.796Z,10.70
2022-11-24T01:21:18.652Z,10.70
2022-11-24T01:23:48.416Z,10.70
2022-11-24T01:26:18.771Z,10.70
2022-11-24T01:28:47.838Z,10.80
2022-11-24T01:31:17.275Z,10.70
2022-11-24T01:33:45.506Z,10.70
2022-11-24T01:36:13.938Z,10.70
2022-11-24T01:38:42.282Z,10.70
2022-11-24T01:41:14.653Z,10.60
2022-11-24T01:43:43.981Z,10.60
2022-11-24T01:46:19.301Z,10.60
2022-11-24T01:48:52.850Z,10.60
2022-11-24T01:51:24.924Z,10.60
2022-11-24T01:53:56.255Z,10.50
2022-11-24T01:56:27.913Z,10.50
2022-11-24T01:59:00.234Z,10.50
2022-11-24T02:01:29.412Z,10.40
2022-11-24T02:03:58.438Z,10.50
2022-11-24T02:06:30.456Z,10.50
2022-11-24T02:08:59.675Z,10.40
2022-11-24T02:45:12.283Z,10.20
2022-11-24T02:47:40.487Z,10.20
2022-11-24T02:50:09.126Z,10.20
2022-11-24T02:52:37.313Z,10.20
2022-11-24T02:55:06.117Z,10.20
2022-11-24T02:57:34.354Z,10.20
2022-11-24T03:00:02.645Z,10.20
2022-11-24T03:02:32.269Z,10.30
2022-11-24T03:05:00.515Z,10.30
2022-11-24T03:07:28.725Z,10.30
2022-11-24T03:09:56.997Z,10.30
2022-11-24T03:12:25.255Z,10.30
2022-11-24T03:14:53.424Z,10.40
2022-11-24T03:17:21.589Z,10.40
2022-11-24T03:19:51.168Z,10.40
2022-11-24T03:22:19.337Z,10.40
2022-11-24T03:24:47.623Z,10.40
2022-11-24T03:27:15.860Z,10.40
2022-11-24T03:29:44.036Z,10.40
2022-11-24T03:32:12.217Z,10.40
2022-11-24T03:34:40.412Z,10.50
2022-11-24T03:37:10.532Z,10.50
2022-11-24T03:39:38.689Z,10.50
2022-11-24T03:42:06.935Z,10.50
2022-11-24T03:44:35.357Z,10.50
2022-11-24T03:47:03.657Z,10.50
2022-11-24T03:49:32.028Z,10.50
2022-11-24T03:52:05.127Z,10.50
2022-11-24T03:54:37.298Z,10.40
2022-11-24T03:57:05.542Z,10.40
2022-11-24T04:06:55.310Z,10.40
2022-11-24T04:09:23.549Z,10.40
2022-11-24T04:12:10.350Z,10.40
2022-11-24T04:14:38.502Z,10.40
2022-11-24T04:17:06.670Z,10.30
2022-11-24T04:19:34.874Z,10.30
2022-11-24T04:22:03.130Z,10.30
2022-11-24T04:24:31.707Z,10.30
2022-11-24T04:27:01.417Z,10.30
2022-11-24T04:29:29.612Z,10.30
2022-11-24T04:31:57.861Z,10.30
2022-11-24T04:34:26.071Z,10.20
2022-11-24T04:36:54.249Z,10.20
2022-11-24T04:39:26.523Z,10.20
2022-11-24T04:41:57.124Z,10.20
2022-11-24T04:44:26.673Z,10.20
2022-11-24T04:46:55.160Z,10.20
2022-11-24T04:49:23.365Z,10.20
2022-11-24T04:51:51.517Z,10.20
2022-11-24T04:54:19.759Z,10.20
2022-11-24T04:56:52.712Z,10.20
2022-11-24T04:59:21.222Z,10.20
2022-11-24T05:01:50.859Z,10.20
2022-11-24T05:04:20.428Z,10.20
2022-11-24T05:06:49.069Z,10.20
2022-11-24T05:09:18.312Z,10.20
2022-11-24T05:11:46.494Z,10.30
2022-11-24T05:14:14.689Z,10.30
2022-11-24T05:16:42.920Z,10.30
2022-11-24T05:19:13.039Z,10.40
2022-11-24T05:21:41.275Z,10.30
2022-11-24T05:24:09.786Z,10.40
2022-11-24T05:26:38.054Z,10.40
2022-11-24T05:29:06.219Z,10.40
2022-11-24T05:31:34.522Z,10.40
2022-11-24T05:34:02.760Z,10.50
2022-11-24T05:36:49.442Z,10.50
2022-11-24T05:39:17.626Z,10.50
2022-11-24T05:41:45.962Z,10.50
2022-11-24T05:44:14.309Z,10.50
2022-11-24T05:46:42.637Z,10.60
2022-11-24T05:49:10.973Z,10.60
2022-11-24T05:51:40.549Z,10.60
2022-11-24T05:54:08.717Z,10.60
2022-11-24T05:56:36.890Z,10.70
2022-11-24T05:59:09.655Z,10.70
2022-11-24T06:01:38.341Z,10.70
2022-11-24T06:04:06.618Z,10.70
2022-11-24T06:06:34.800Z,10.70
2022-11-24T06:09:04.397Z,10.70
2022-11-24T06:11:32.599Z,10.70
2022-11-24T06:14:00.769Z,10.70
2022-11-24T06:16:29.253Z,10.70
2022-11-24T06:18:57.766Z,10.70
2022-11-24T06:21:25.953Z,10.60
2022-11-24T06:23:54.144Z,10.60
2022-11-24T06:26:23.687Z,10.60
2022-11-24T06:28:51.860Z,10.50
2022-11-24T06:31:20.085Z,10.50
2022-11-24T06:33:48.346Z,10.50
2022-11-24T06:36:16.645Z,10.40
2022-11-24T06:38:44.862Z,10.40
2022-11-24T06:41:14.702Z,10.30
2022-11-24T06:43:44.292Z,10.30
2022-11-24T06:46:13.241Z,10.30
2022-11-24T06:48:41.448Z,10.20
2022-11-24T06:51:12.803Z,10.30
2022-11-24T06:53:41.954Z,10.20
2022-11-24T06:56:16.329Z,10.20
2022-11-24T06:58:47.464Z,10.20
2022-11-24T07:01:17.124Z,10.20
2022-11-24T07:03:45.509Z,10.20
2022-11-24T07:06:13.705Z,10.20
2022-11-24T07:08:41.945Z,10.20
2022-11-24T07:11:12.575Z,10.30
2022-11-24T07:13:40.722Z,10.30
2022-11-24T07:16:15.631Z,10.30
2022-11-24T07:18:44.421Z,10.30
2022-11-24T07:21:13.274Z,10.40
2022-11-24T07:23:42.278Z,10.40
2022-11-24T07:26:11.704Z,10.40
2022-11-24T07:28:40.339Z,10.40
2022-11-24T07:31:09.292Z,10.50
2022-11-24T07:33:39.210Z,10.50
2022-11-24T07:36:09.069Z,10.60
2022-11-24T07:38:37.449Z,10.60
2022-11-24T07:41:07.211Z,10.60
2022-11-24T07:43:36.792Z,10.70
2022-11-24T07:46:06.028Z,10.70
2022-11-24T07:48:34.615Z,10.70
2022-11-24T07:51:05.519Z,10.80
2022-11-24T07:53:34.003Z,10.80
2022-11-24T07:56:03.483Z,10.90
2022-11-24T07:58:33.446Z,10.90
2022-11-24T08:01:01.836Z,10.90
2022-11-24T08:03:30.016Z,10.90
2022-11-24T08:08:48.929Z,11.00
2022-11-24T08:11:18.419Z,11.10
2022-11-24T08:13:46.887Z,11.20
2022-11-24T08:16:17.108Z,11.20
2022-11-24T08:18:49.734Z,11.20
2022-11-24T08:21:17.967Z,11.20
2022-11-24T08:23:46.148Z,11.30
2022-11-24T08:26:18.868Z,11.30
2022-11-24T08:28:48.536Z,11.30
2022-11-24T08:31:19.651Z,11.30
2022-11-24T08:33:48.066Z,11.30
2022-11-24T08:36:18.512Z,11.30
2022-11-24T08:38:48.979Z,11.40
2022-11-24T08:41:18.927Z,11.40
2022-11-24T08:43:47.289Z,11.40
2022-11-24T08:46:18.462Z,11.40
2022-11-24T08:48:50.136Z,11.50
2022-11-24T08:51:20.860Z,11.50
2022-11-24T08:53:49.201Z,11.50
2022-11-24T08:56:18.725Z,11.50
2022-11-24T08:58:46.991Z,11.50
2022-11-24T09:01:17.697Z,11.60
2022-11-24T09:03:50.746Z,11.60
2022-11-24T09:06:22.912Z,11.60
2022-11-24T09:08:51.275Z,11.70
2022-11-24T09:11:21.666Z,11.70
2022-11-24T09:13:50.110Z,11.70
2022-11-24T09:16:21.195Z,11.80
2022-11-24T09:18:49.819Z,11.80
2022-11-24T09:21:20.258Z,11.80
2022-11-24T09:23:50.654Z,11.90
2022-11-24T09:26:23.014Z,11.90
2022-11-24T09:28:54.463Z,12.00
2022-11-24T09:31:24.687Z,12.00
2022-11-24T09:33:53.780Z,12.00
2022-11-24T09:36:22.841Z,12.10
2022-11-24T09:38:51.123Z,12.10
2022-11-24T09:41:45.692Z,12.20
2022-11-24T09:44:46.030Z,12.20
2022-11-24T09:47:21.886Z,12.30
2022-11-24T09:49:55.704Z,12.30
2022-11-24T09:52:39.276Z,12.40
2022-11-24T09:55:39.721Z,12.40
2022-11-24T09:58:22.972Z,12.50
2022-11-24T10:00:53.692Z,12.50
2022-11-24T10:03:28.890Z,12.60
2022-11-24T10:05:57.234Z,12.60
2022-11-24T10:08:46.787Z,12.70
2022-11-24T10:11:17.771Z,12.70
2022-11-24T10:14:08.639Z,12.80
2022-11-24T10:16:47.550Z,12.90
2022-11-24T10:19:34.448Z,13.00
2022-11-24T10:22:19.750Z,13.00
2022-11-24T10:25:03.408Z,13.00
2022-11-24T10:27:36.969Z,13.00
2022-11-24T10:30:15.941Z,13.00
2022-11-24T10:32:48.251Z,13.00
2022-11-24T10:35:20.285Z,13.10
2022-11-24T10:37:58.035Z,13.00
2022-11-24T10:43:22.743Z,13.00
2022-11-24T10:45:52.415Z,13.00
2022-11-24T10:48:25.489Z,13.00
2022-11-24T10:50:55.305Z,13.00
2022-11-24T10:53:27.564Z,13.00
2022-11-24T10:56:00.452Z,13.00
2022-11-24T10:58:36.067Z,13.00
2022-11-24T11:01:27.671Z,13.00
2022-11-24T11:03:59.258Z,13.00
2022-11-24T11:06:28.849Z,13.00
2022-11-24T11:09:19.678Z,13.00
2022-11-24T11:11:48.909Z,13.00
2022-11-24T11:14:31.334Z,13.00
2022-11-24T11:17:01.099Z,13.00
2022-11-24T11:19:57.008Z,13.00
2022-11-24T11:22:28.172Z,13.10
2022-11-24T11:25:07.191Z,13.10
2022-11-24T11:27:35.425Z,13.10
2022-11-24T11:36:12.625Z,13.20
2022-11-24T11:38:42.929Z,13.20
2022-11-24T11:41:21.730Z,13.20
2022-11-24T11:43:57.792Z,13.20
2022-11-24T11:46:27.713Z,13.20
2022-11-24T11:48:57.506Z,13.20
2022-11-24T11:51:35.623Z,13.20
2022-11-24T11:54:10.599Z,13.20
2022-11-24T11:56:45.190Z,13.30
2022-11-24T11:59:37.415Z,13.30
2022-11-24T12:02:30.479Z,13.30
2022-11-24T12:05:03.218Z,13.30
2022-11-24T12:07:48.657Z,13.30
2022-11-24T12:10:27.368Z,13.30
2022-11-24T12:13:09.332Z,13.30
2022-11-24T12:15:41.952Z,13.30
2022-11-24T12:18:48.355Z,13.30
2022-11-24T12:21:24.571Z,13.30
2022-11-24T12:24:05.730Z,13.30
2022-11-24T12:26:43.431Z,13.30
2022-11-24T12:29:40.590Z,13.40
2022-11-24T12:32:17.845Z,13.40
2022-11-24T12:34:54.827Z,13.40
2022-11-24T12:37:38.197Z,13.40
2022-11-24T12:40:15.761Z,13.50
2022-11-24T12:42:56.274Z,13.50
2022-11-24T12:45:33.570Z,13.50
2022-11-24T12:48:32.256Z,13.50
2022-11-24T12:51:01.469Z,13.50
2022-11-24T12:53:35.777Z,13.60
2022-11-24T12:56:16.032Z,13.60
2022-11-24T12:58:52.166Z,13.60
2022-11-24T13:01:34.601Z,13.60
2022-11-24T13:04:17.248Z,13.60
2022-11-24T13:06:52.940Z,13.60
2022-11-24T13:09:22.784Z,13.60
2022-11-24T13:11:52.951Z,13.60
2022-11-24T13:14:23.638Z,13.60
2022-11-24T13:19:43.828Z,13.60
2022-11-24T13:22:17.070Z,13.60
2022-11-24T13:24:46.691Z,13.60
2022-11-24T13:27:41.973Z,13.50
2022-11-24T13:30:58.505Z,13.60
2022-11-24T13:33:37.303Z,13.60
2022-11-24T13:36:33.878Z,13.60
2022-11-24T13:39:03.663Z,13.60
2022-11-24T13:42:07.737Z,13.60
2022-11-24T13:44:53.909Z,13.60
2022-11-24T13:47:40.621Z,13.50
2022-11-24T13:50:25.324Z,13.50
2022-11-24T13:53:01.849Z,13.50
2022-11-24T13:55:34.780Z,13.50
2022-11-24T13:58:22.678Z,13.50
2022-11-24T14:01:08.252Z,13.50
2022-11-24T14:03:39.949Z,13.50
2022-11-24T14:06:15.297Z,13.40
2022-11-24T14:08:46.492Z,13.40
2022-11-24T14:11:17.279Z,13.50
2022-11-24T14:13:45.965Z,13.40
2022-11-24T14:16:19.181Z,13.50
2022-11-24T14:18:48.714Z,13.50
2022-11-24T14:21:28.075Z,13.50
2022-11-24T14:23:59.104Z,13.50
2022-11-24T14:26:33.202Z,13.50
2022-11-24T14:29:07.376Z,13.50
2022-11-24T14:31:37.241Z,13.50
2022-11-24T14:34:15.847Z,13.60
2022-11-24T14:36:45.683Z,13.60
2022-11-24T14:39:15.694Z,13.60
2022-11-24T14:41:51.434Z,13.60
2022-11-24T14:44:23.898Z,13.50
2022-11-24T14:47:03.203Z,13.50
2022-11-24T14:49:32.556Z,13.50
2022-11-24T14:52:04.338Z,13.50
2022-11-24T14:54:33.205Z,13.40
2022-11-24T14:57:04.346Z,13.40
2022-11-24T14:59:36.073Z,13.30
2022-11-24T15:02:42.092Z,13.30
2022-11-24T15:05:10.934Z,13.20
2022-11-24T15:07:42.216Z,13.20
2022-11-24T15:10:34.099Z,13.10
2022-11-24T15:13:05.025Z,13.10
2022-11-24T15:15:36.871Z,13.10
2022-11-24T15:18:07.796Z,13.00
2022-11-24T15:20:41.698Z,13.10
2022-11-24T15:23:24.333Z,13.00
2022-11-24T15:25:53.515Z,13.00
2022-11-24T15:28:25.691Z,13.00
2022-11-24T15:30:54.577Z,12.90
2022-11-24T15:33:24.916Z,12.90
2022-11-24T15:35:53.182Z,12.90
2022-11-24T15:38:21.576Z,12.80
2022-11-24T15:40:51.643Z,12.80
2022-11-24T15:43:28.885Z,12.80
2022-11-24T15:45:57.234Z,12.70
2022-11-24T15:48:27.269Z,12.70
2022-11-24T15:50:57.319Z,12.60
2022-11-24T15:53:29.244Z,12.50
2022-11-24T15:55:57.703Z,12.50
2022-11-24T15:58:26.150Z,12.40
2022-11-24T16:00:54.498Z,12.40
2022-11-24T16:06:16.717Z,12.30
2022-11-24T16:08:47.724Z,12.20
2022-11-24T16:11:15.952Z,12.20
2022-11-24T16:13:50.060Z,12.10
2022-11-24T16:16:20.908Z,12.10
2022-11-24T16:18:49.145Z,12.00
2022-11-24T16:21:18.749Z,11.90
2022-11-24T16:23:47.809Z,11.90
2022-11-24T16:26:16.061Z,11.90
2022-11-24T16:28:45.736Z,11.90
2022-11-24T16:31:15.815Z,11.80
2022-11-24T16:33:45.512Z,11.80
2022-11-24T16:36:14.284Z,11.80
2022-11-24T16:38:43.848Z,11.70
2022-11-24T16:41:12.499Z,11.70
2022-11-24T16:43:40.853Z,11.70
2022-11-24T16:46:18.985Z,11.60
2022-11-24T16:48:48.408Z,11.60
2022-11-24T16:51:18.009Z,11.60
2022-11-24T16:53:48.154Z,11.50
2022-11-24T16:56:17.585Z,11.50
2022-11-24T16:58:45.806Z,11.40
2022-11-24T17:01:15.148Z,11.40
2022-11-24T17:03:43.697Z,11.40
2022-11-24T17:06:15.792Z,11.30
2022-11-24T17:08:45.617Z,11.30
2022-11-24T17:11:16.662Z,11.20
2022-11-24T17:13:47.014Z,11.20
2022-11-24T17:16:17.129Z,11.20
2022-11-24T17:18:45.977Z,11.10
2022-11-24T17:21:15.247Z,11.10
2022-11-24T17:23:43.813Z,11.00
2022-11-24T17:26:15.221Z,11.00
2022-11-24T17:28:43.928Z,10.90
2022-11-24T17:31:18.844Z,10.90
2022-11-24T17:33:47.198Z,10.80
2022-11-24T17:36:15.404Z,10.80
2022-11-24T17:38:43.651Z,10.70
2022-11-24T17:41:12.082Z,10.70
2022-11-24T17:43:42.141Z,10.60
2022-11-24T17:46:11.745Z,10.60
2022-11-24T17:48:40.232Z,10.50
2022-11-24T17:51:12.722Z,10.40
2022-11-24T17:53:41.933Z,10.40
2022-11-24T17:56:13.875Z,10.30
2022-11-24T17:58:43.623Z,10.30
2022-11-24T18:01:12.610Z,10.30
2022-11-24T18:03:41.476Z,10.20
2022-11-24T18:06:11.270Z,10.20
2022-11-24T18:08:41.180Z,10.20
2022-11-24T18:11:11.104Z,10.10
2022-11-24T18:16:30.436Z,10.00
2022-11-24T18:19:09.875Z,10.00
2022-11-24T18:21:39.065Z,10.00
2022-11-24T18:24:07.821Z,9.90
2022-11-24T18:26:36.049Z,9.90
2022-11-24T18:29:04.428Z,9.90
2022-11-24T18:31:35.689Z,9.80
2022-11-24T18:34:05.460Z,9.80
2022-11-24T18:36:34.566Z,9.80
2022-11-24T18:39:03.181Z,9.80
2022-11-24T18:41:31.838Z,9.80
2022-11-24T18:44:02.449Z,9.80
2022-11-24T18:46:30.757Z,9.80
2022-11-24T18:49:00.432Z,9.70
2022-11-24T18:51:30.129Z,9.70
2022-11-24T18:53:59.047Z,9.70
2022-11-24T18:56:27.915Z,9.70
2022-11-24T18:58:57.792Z,9.60
2022-11-24T19:01:27.977Z,9.60
2022-11-24T19:03:58.412Z,9.60
2022-11-24T19:06:32.007Z,9.60
2022-11-24T19:09:01.642Z,9.60
2022-11-24T19:11:32.424Z,9.60
2022-11-24T19:14:00.780Z,9.60
2022-11-24T19:16:29.014Z,9.60
2022-11-24T19:19:00.028Z,9.50
2022-11-24T19:21:31.464Z,9.50
2022-11-24T19:24:04.530Z,9.40
2022-11-24T19:26:34.993Z,9.30
2022-11-24T19:29:03.986Z,9.30
2022-11-24T19:31:32.534Z,9.30
2022-11-24T19:34:02.904Z,9.30
2022-11-24T19:36:33.060Z,9.20
2022-11-24T19:39:03.153Z,9.20
2022-11-24T19:41:32.502Z,9.20
2022-11-24T19:44:01.021Z,9.20
2022-11-24T19:46:30.668Z,9.20
2022-11-24T19:49:02.014Z,9.20
2022-11-24T19:51:33.878Z,9.20
2022-11-24T19:54:02.687Z,9.20
2022-11-24T19:56:32.248Z,9.20
2022-11-24T19:59:00.425Z,9.20
2022-11-24T20:01:30.935Z,9.20
2022-11-24T20:04:00.701Z,9.20
2022-11-24T20:06:30.401Z,9.10
2022-11-24T20:09:01.121Z,9.10
2022-11-24T20:11:30.034Z,9.10
2022-11-24T20:13:58.815Z,9.00
2022-11-24T20:16:29.669Z,9.00
2022-11-24T20:18:59.477Z,9.00
2022-11-24T20:21:31.180Z,9.00
2022-11-24T20:24:02.510Z,9.00
2022-11-24T20:26:33.550Z,8.90
2022-11-24T20:29:02.692Z,8.90
2022-11-24T20:31:33.789Z,8.90
2022-11-24T20:34:03.587Z,8.90
2022-11-24T20:36:33.481Z,8.90
2022-11-24T20:39:06.044Z,9.00
2022-11-24T20:41:36.290Z,9.00
2022-11-24T20:44:08.188Z,9.00
2022-11-24T20:46:37.273Z,9.00
2022-11-24T20:49:06.627Z,9.00
2022-11-24T20:51:37.585Z,9.00
2022-11-24T20:54:09.148Z,8.90
2022-11-24T20:56:39.789Z,8.90
2022-11-24T20:59:08.355Z,8.90
2022-11-24T21:01:39.216Z,8.90
2022-11-24T21:04:09.420Z,8.90
2022-11-24T21:06:38.036Z,8.90
2022-11-24T21:09:08.432Z,8.90
2022-11-24T21:11:37.525Z,8.90
2022-11-24T21:14:05.930Z,8.90
2022-11-24T21:16:35.809Z,8.90
2022-11-24T21:19:05.852Z,8.90
2022-11-24T21:21:36.424Z,8.90
2022-11-24T21:24:06.256Z,8.90
2022-11-24T21:26:38.355Z,8.90
2022-11-24T21:29:08.966Z,9.00
2022-11-24T21:31:38.746Z,9.00
2022-11-24T21:34:08.339Z,9.00
2022-11-24T21:36:40.685Z,9.00
2022-11-24T21:39:12.189Z,9.00
2022-11-24T21:41:42.730Z,9.00
2022-11-24T21:44:12.871Z,9.00
2022-11-24T21:46:46.128Z,9.10
2022-11-24T21:49:17.689Z,9.10
2022-11-24T21:51:45.866Z,9.10
2022-11-24T21:54:14.089Z,9.00
2022-11-24T21:56:43.642Z,9.00
2022-11-24T21:59:11.869Z,9.00
2022-11-24T22:01:40.118Z,9.00
2022-11-24T22:04:08.337Z,9.00
2022-11-24T22:06:36.687Z,9.00
2022-11-24T22:09:04.876Z,9.00
2022-11-24T22:11:33.059Z,9.00
2022-11-24T22:14:02.647Z,9.00
2022-11-24T22:16:31.028Z,9.00
2022-11-24T22:19:01.707Z,9.00
2022-11-24T22:21:33.366Z,8.90
2022-11-24T22:24:01.949Z,8.90
2022-11-24T22:26:31.033Z,8.90
2022-11-24T22:28:59.824Z,8.90
2022-11-24T22:31:31.059Z,8.90
2022-11-24T22:34:00.434Z,8.90
2022-11-24T22:36:30.863Z,8.90
2022-11-24T22:39:03.042Z,8.90
2022-11-24T22:41:32.664Z,8.90
2022-11-24T22:44:01.021Z,8.90
2022-11-24T22:46:32.455Z,8.90
2022-11-24T22:49:02.121Z,8.90
2022-11-24T22:51:32.483Z,8.90
2022-11-24T22:54:01.772Z,8.90
2022-11-24T22:56:32.339Z,8.90
2022-11-24T22:59:01.123Z,8.90
2022-11-24T23:01:32.146Z,8.80
2022-11-24T23:04:00.515Z,8.80
2022-11-24T23:06:31.079Z,8.80
2022-11-24T23:09:02.128Z,8.70
2022-11-24T23:11:37.417Z,8.70
2022-11-24T23:14:07.068Z,8.70
2022-11-24T23:16:36.900Z,8.70
2022-11-24T23:19:05.757Z,8.70
2022-11-24T23:21:36.007Z,8.70
2022-11-24T23:24:05.444Z,8.70
2022-11-24T23:26:36.120Z,8.60
2022-11-24T23:29:05.004Z,8.60
2022-11-24T23:31:33.307Z,8.60
2022-11-24T23:34:04.484Z,8.60
2022-11-24T23:36:33.803Z,8.60
2022-11-24T23:39:05.901Z,8.60
2022-11-24T23:41:34.437Z,8.60
2022-11-24T23:44:02.619Z,8.60
2022-11-24T23:46:31.309Z,8.60
2022-11-24T23:48:59.641Z,8.60
2022-11-24T23:51:30.706Z,8.60
2022-11-24T23:54:00.000Z,8.50
2022-11-24T23:56:32.372Z,8.50
2022-11-24T23:59:01.253Z,8.50
